Flight Track Log - Related Links

Times and Time Zones

All times are in EDT time to prevent confusion due to time zone crossing. See the EJA583 flight status page for this flight to view local times or setup timezone preferences in your user account.

Time Position Orientation Groundspeed Altitude Reporting Facility
EDT Latitude Longitude Course Direction KTS MPH feet Rate Location/Type
Wed 08:31:01 AM 40.7692 -111.9639 205° Southwest 184 212 4,900  Level Salt Lake Center
Wed 08:31:26 AM 40.7481 -111.9767 205° Southwest 217 250 5,700 2,824 Climbing Salt Lake Center
Wed 08:32:26 AM 40.7550 -112.0678 276° West 273 314 8,900 2,964 Climbing Salt Lake Center
Wed 08:32:49 AM 40.7733 -112.0922 315° West 277 319 9,800 2,262 Climbing Salt Lake Center
Wed 08:33:27 AM 40.8181 -112.1369 323° Northwest 310 357 11,200 2,100 Climbing Salt Lake Center
Wed 08:33:49 AM 40.8481 -112.1356 North 316 364 11,900 2,458 Climbing Salt Lake Center
Wed 08:34:50 AM 40.9197 -112.0742 33° Northeast 307 353 14,600 2,380 Climbing Salt Lake Center
Wed 08:35:50 AM 40.9919 -112.0142 32° Northeast 304 350 16,700 1,190 Climbing Salt Lake Center
Wed 08:36:51 AM 41.0725 -111.9486 32° Northeast 338 389 17,000 149 Climbing Salt Lake Center
Wed 08:37:51 AM 41.1633 -111.8836 28° Northeast 362 417 17,000  Level Salt Lake Center
Wed 08:38:52 AM 41.2653 -111.8389 18° North 381 438 17,000  Level Salt Lake Center
Wed 08:39:52 AM 41.3642 -111.7936 19° North 376 433 17,000  Level Salt Lake Center
Wed 08:40:53 AM 41.4622 -111.7492 19° North 372 428 17,000  Level Salt Lake Center
Wed 08:41:54 AM 41.5611 -111.7047 19° North 376 433 17,000  Level Salt Lake Center
Wed 08:42:54 AM 41.6606 -111.6586 19° North 378 435 17,000  Level Salt Lake Center
Wed 08:43:55 AM 41.7589 -111.6144 19° North 375 432 17,000  Level Salt Lake Center
Wed 08:44:55 AM 41.8508 -111.5722 19° North 357 411 17,000  Level Salt Lake Center
Wed 08:45:56 AM 41.9403 -111.5311 19° North 344 396 17,000  Level Salt Lake Center
Wed 08:46:57 AM 42.0311 -111.4911 18° North 343 395 17,000  Level Salt Lake Center
Wed 08:47:57 AM 42.1267 -111.4453 20° North 360 414 17,000 50 Level Salt Lake Center
Wed 08:48:58 AM 42.2264 -111.4000 19° North 374 430 17,100 50 Climbing Salt Lake Center
Wed 08:49:58 AM 42.3258 -111.3539 19° North 377 434 17,100  Level Salt Lake Center
Wed 08:50:59 AM 42.4269 -111.3075 19° North 382 440 17,100  Level Salt Lake Center
Wed 08:52:00 AM 42.5269 -111.2578 20° North 383 441 17,100  Level Salt Lake Center
Wed 08:53:00 AM 42.6269 -111.2131 18° North 381 438 17,100 -50 Level Salt Lake Center
Wed 08:54:01 AM 42.7303 -111.1639 19° North 383 441 17,000 -49 Descending Salt Lake Center
Wed 08:55:02 AM 42.8286 -111.1161 20° North 376 433 17,000 -545 Level Salt Lake Center
Wed 08:56:02 AM 42.9214 -111.0708 20° North 359 413 15,900 -992 Descending Salt Lake Center
Wed 08:57:03 AM 43.0147 -111.0269 19° North 354 407 15,000 -590 Descending Salt Lake Center
Wed 08:58:04 AM 43.1114 -110.9803 19° North 365 420 14,700 -934 Descending Salt Lake Center
Wed 08:59:05 AM 43.2028 -110.9367 19° North 351 404 13,100 -992 Descending Salt Lake Center
Wed 09:00:05 AM 43.2922 -110.8931 20° North 342 394 12,700 -1,041 Descending Salt Lake Center
Wed 09:01:06 AM 43.3719 -110.8544 19° North 315 362 11,000 -1,672 Descending Salt Lake Center
Wed 09:02:07 AM 43.4550 -110.8133 20° North 280 322 9,300 -1,388 Descending Salt Lake Center
Wed 09:03:07 AM 43.5114 -110.7853 20° North 239 275 8,200 -942 Descending Salt Lake Center
Wed 09:04:08 AM 43.5500 -110.7658 20° North 183 211 7,400 -689 Descending Salt Lake Center
Wed 09:05:09 AM 43.5806 -110.7506 20° North 144 166 6,800 -590 Descending Salt Lake Center

Login

Don't have an account? Register now (free) for customized features, flight alerts, and more!